sensor_id;sensor_type;location;lat;lon;timestamp;temperature;humidity
65291;SHT30;51893;59.754;10.110;2023-10-09T00:02:09;3.78;75.07
65291;SHT30;51893;59.754;10.110;2023-10-09T00:04:38;3.72;75.03
65291;SHT30;51893;59.754;10.110;2023-10-09T00:07:08;3.66;75.08
65291;SHT30;51893;59.754;10.110;2023-10-09T00:09:37;3.59;75.14
65291;SHT30;51893;59.754;10.110;2023-10-09T00:12:17;3.57;75.43
65291;SHT30;51893;59.754;10.110;2023-10-09T00:14:49;3.55;75.72
65291;SHT30;51893;59.754;10.110;2023-10-09T00:17:18;3.53;75.83
65291;SHT30;51893;59.754;10.110;2023-10-09T00:19:49;3.53;75.96
65291;SHT30;51893;59.754;10.110;2023-10-09T00:22:17;3.48;76.01
65291;SHT30;51893;59.754;10.110;2023-10-09T00:24:55;3.45;76.18
65291;SHT30;51893;59.754;10.110;2023-10-09T00:27:47;3.44;76.10
65291;SHT30;51893;59.754;10.110;2023-10-09T00:30:15;3.41;76.22
65291;SHT30;51893;59.754;10.110;2023-10-09T00:32:44;3.41;76.18
65291;SHT30;51893;59.754;10.110;2023-10-09T00:35:25;3.43;75.99
65291;SHT30;51893;59.754;10.110;2023-10-09T00:38:11;3.43;75.99
65291;SHT30;51893;59.754;10.110;2023-10-09T00:40:47;3.37;76.04
65291;SHT30;51893;59.754;10.110;2023-10-09T00:43:23;3.31;76.25
65291;SHT30;51893;59.754;10.110;2023-10-09T00:45:55;3.30;76.35
65291;SHT30;51893;59.754;10.110;2023-10-09T00:48:38;3.34;76.37
65291;SHT30;51893;59.754;10.110;2023-10-09T00:51:09;3.32;76.32
65291;SHT30;51893;59.754;10.110;2023-10-09T00:53:45;3.19;76.41
65291;SHT30;51893;59.754;10.110;2023-10-09T00:56:21;3.18;76.66
65291;SHT30;51893;59.754;10.110;2023-10-09T00:59:00;3.13;76.60
65291;SHT30;51893;59.754;10.110;2023-10-09T01:01:41;3.06;76.85
65291;SHT30;51893;59.754;10.110;2023-10-09T01:04:25;2.93;76.81
65291;SHT30;51893;59.754;10.110;2023-10-09T01:06:58;2.79;77.12
65291;SHT30;51893;59.754;10.110;2023-10-09T01:09:57;2.70;77.53
65291;SHT30;51893;59.754;10.110;2023-10-09T01:12:25;2.65;77.52
65291;SHT30;51893;59.754;10.110;2023-10-09T01:14:55;2.61;77.46
65291;SHT30;51893;59.754;10.110;2023-10-09T01:17:22;2.57;77.58
65291;SHT30;51893;59.754;10.110;2023-10-09T01:20:11;2.53;77.66
65291;SHT30;51893;59.754;10.110;2023-10-09T01:22:43;2.49;77.89
65291;SHT30;51893;59.754;10.110;2023-10-09T01:25:10;2.50;77.91
65291;SHT30;51893;59.754;10.110;2023-10-09T01:27:36;2.48;77.75
65291;SHT30;51893;59.754;10.110;2023-10-09T01:30:07;2.46;77.64
65291;SHT30;51893;59.754;10.110;2023-10-09T01:32:40;2.48;77.51
65291;SHT30;51893;59.754;10.110;2023-10-09T01:35:07;2.44;77.52
65291;SHT30;51893;59.754;10.110;2023-10-09T01:37:46;2.43;77.57
65291;SHT30;51893;59.754;10.110;2023-10-09T01:40:18;2.46;77.60
65291;SHT30;51893;59.754;10.110;2023-10-09T01:43:03;2.57;77.72
65291;SHT30;51893;59.754;10.110;2023-10-09T01:45:36;2.56;77.39
65291;SHT30;51893;59.754;10.110;2023-10-09T01:48:12;2.55;77.37
65291;SHT30;51893;59.754;10.110;2023-10-09T01:50:44;2.53;77.11
65291;SHT30;51893;59.754;10.110;2023-10-09T01:53:14;2.45;77.13
65291;SHT30;51893;59.754;10.110;2023-10-09T01:55:44;2.40;77.34
65291;SHT30;51893;59.754;10.110;2023-10-09T01:58:11;2.36;77.46
65291;SHT30;51893;59.754;10.110;2023-10-09T02:00:47;2.33;77.46
65291;SHT30;51893;59.754;10.110;2023-10-09T02:03:20;2.32;77.51
65291;SHT30;51893;59.754;10.110;2023-10-09T02:05:52;2.35;77.46
65291;SHT30;51893;59.754;10.110;2023-10-09T02:08:19;2.32;77.26
65291;SHT30;51893;59.754;10.110;2023-10-09T02:10:53;2.35;77.10
65291;SHT30;51893;59.754;10.110;2023-10-09T02:13:22;2.39;76.89
65291;SHT30;51893;59.754;10.110;2023-10-09T02:16:01;2.38;76.69
65291;SHT30;51893;59.754;10.110;2023-10-09T02:18:40;2.40;77.01
65291;SHT30;51893;59.754;10.110;2023-10-09T02:21:19;2.40;76.75
65291;SHT30;51893;59.754;10.110;2023-10-09T02:23:57;2.38;76.66
65291;SHT30;51893;59.754;10.110;2023-10-09T02:26:24;2.38;76.62
65291;SHT30;51893;59.754;10.110;2023-10-09T02:29:06;2.33;76.42
65291;SHT30;51893;59.754;10.110;2023-10-09T02:31:46;2.27;76.33
65291;SHT30;51893;59.754;10.110;2023-10-09T02:34:17;2.28;76.21
65291;SHT30;51893;59.754;10.110;2023-10-09T02:36:48;2.31;76.04
65291;SHT30;51893;59.754;10.110;2023-10-09T02:39:15;2.35;75.93
65291;SHT30;51893;59.754;10.110;2023-10-09T02:42:05;2.38;75.85
65291;SHT30;51893;59.754;10.110;2023-10-09T02:44:35;2.35;75.94
65291;SHT30;51893;59.754;10.110;2023-10-09T02:47:07;2.35;76.10
65291;SHT30;51893;59.754;10.110;2023-10-09T02:49:44;2.33;76.03
65291;SHT30;51893;59.754;10.110;2023-10-09T02:52:14;2.32;76.00
65291;SHT30;51893;59.754;10.110;2023-10-09T02:54:45;2.30;75.92
65291;SHT30;51893;59.754;10.110;2023-10-09T02:57:19;2.18;76.19
65291;SHT30;51893;59.754;10.110;2023-10-09T02:59:50;2.06;76.46
65291;SHT30;51893;59.754;10.110;2023-10-09T03:02:18;2.00;76.66
65291;SHT30;51893;59.754;10.110;2023-10-09T03:04:45;2.00;76.78
65291;SHT30;51893;59.754;10.110;2023-10-09T03:07:12;2.01;76.75
65291;SHT30;51893;59.754;10.110;2023-10-09T03:09:41;2.01;76.54
65291;SHT30;51893;59.754;10.110;2023-10-09T03:12:08;2.03;76.53
65291;SHT30;51893;59.754;10.110;2023-10-09T03:14:40;2.06;76.59
65291;SHT30;51893;59.754;10.110;2023-10-09T03:17:07;2.04;76.61
65291;SHT30;51893;59.754;10.110;2023-10-09T03:19:37;2.00;77.44
65291;SHT30;51893;59.754;10.110;2023-10-09T03:22:05;1.98;77.60
65291;SHT30;51893;59.754;10.110;2023-10-09T03:24:36;1.97;77.73
65291;SHT30;51893;59.754;10.110;2023-10-09T03:27:05;1.99;77.46
65291;SHT30;51893;59.754;10.110;2023-10-09T03:29:32;1.97;77.05
65291;SHT30;51893;59.754;10.110;2023-10-09T03:31:59;1.97;76.93
65291;SHT30;51893;59.754;10.110;2023-10-09T03:34:26;1.94;76.87
65291;SHT30;51893;59.754;10.110;2023-10-09T03:36:54;1.96;76.86
65291;SHT30;51893;59.754;10.110;2023-10-09T03:39:31;1.94;76.70
65291;SHT30;51893;59.754;10.110;2023-10-09T03:42:07;1.89;76.70
65291;SHT30;51893;59.754;10.110;2023-10-09T03:44:46;1.83;76.91
65291;SHT30;51893;59.754;10.110;2023-10-09T03:47:19;1.79;77.07
65291;SHT30;51893;59.754;10.110;2023-10-09T03:49:49;1.72;77.06
65291;SHT30;51893;59.754;10.110;2023-10-09T03:52:20;1.69;77.26
65291;SHT30;51893;59.754;10.110;2023-10-09T03:54:49;1.71;77.41
65291;SHT30;51893;59.754;10.110;2023-10-09T03:57:16;1.75;77.51
65291;SHT30;51893;59.754;10.110;2023-10-09T03:59:46;1.73;77.69
65291;SHT30;51893;59.754;10.110;2023-10-09T04:02:14;1.62;78.04
65291;SHT30;51893;59.754;10.110;2023-10-09T04:04:42;1.52;78.54
65291;SHT30;51893;59.754;10.110;2023-10-09T04:07:13;1.43;79.20
65291;SHT30;51893;59.754;10.110;2023-10-09T04:09:43;1.40;79.58
65291;SHT30;51893;59.754;10.110;2023-10-09T04:12:27;1.37;79.75
65291;SHT30;51893;59.754;10.110;2023-10-09T04:14:57;1.44;79.81
65291;SHT30;51893;59.754;10.110;2023-10-09T04:17:27;1.50;79.45
65291;SHT30;51893;59.754;10.110;2023-10-09T04:20:01;1.51;79.13
65291;SHT30;51893;59.754;10.110;2023-10-09T04:22:45;1.53;78.79
65291;SHT30;51893;59.754;10.110;2023-10-09T04:25:26;1.51;78.59
65291;SHT30;51893;59.754;10.110;2023-10-09T04:27:58;1.51;78.36
65291;SHT30;51893;59.754;10.110;2023-10-09T04:30:38;1.51;78.21
65291;SHT30;51893;59.754;10.110;2023-10-09T04:33:23;1.48;78.08
65291;SHT30;51893;59.754;10.110;2023-10-09T04:36:02;1.52;78.01
65291;SHT30;51893;59.754;10.110;2023-10-09T04:38:42;1.55;77.80
65291;SHT30;51893;59.754;10.110;2023-10-09T04:41:22;1.58;77.76
65291;SHT30;51893;59.754;10.110;2023-10-09T04:43:59;1.60;77.97
65291;SHT30;51893;59.754;10.110;2023-10-09T04:46:45;1.56;78.20
65291;SHT30;51893;59.754;10.110;2023-10-09T04:49:31;1.59;78.14
65291;SHT30;51893;59.754;10.110;2023-10-09T04:52:16;1.60;77.83
65291;SHT30;51893;59.754;10.110;2023-10-09T04:55:06;1.58;77.76
65291;SHT30;51893;59.754;10.110;2023-10-09T04:57:38;1.60;77.71
65291;SHT30;51893;59.754;10.110;2023-10-09T05:00:08;1.58;77.66
65291;SHT30;51893;59.754;10.110;2023-10-09T05:03:02;1.64;77.66
65291;SHT30;51893;59.754;10.110;2023-10-09T05:05:32;1.62;77.48
65291;SHT30;51893;59.754;10.110;2023-10-09T05:08:10;1.56;77.40
65291;SHT30;51893;59.754;10.110;2023-10-09T05:13:26;1.52;77.19
65291;SHT30;51893;59.754;10.110;2023-10-09T05:16:11;1.50;77.19
65291;SHT30;51893;59.754;10.110;2023-10-09T05:18:43;1.46;77.14
65291;SHT30;51893;59.754;10.110;2023-10-09T05:21:11;1.37;76.82
65291;SHT30;51893;59.754;10.110;2023-10-09T05:23:57;1.26;77.11
65291;SHT30;51893;59.754;10.110;2023-10-09T05:26:39;1.22;77.46
65291;SHT30;51893;59.754;10.110;2023-10-09T05:32:03;1.13;78.09
65291;SHT30;51893;59.754;10.110;2023-10-09T05:34:41;1.14;78.22
65291;SHT30;51893;59.754;10.110;2023-10-09T05:37:26;1.11;78.19
65291;SHT30;51893;59.754;10.110;2023-10-09T05:40:02;1.02;78.29
65291;SHT30;51893;59.754;10.110;2023-10-09T05:42:45;1.02;78.51
65291;SHT30;51893;59.754;10.110;2023-10-09T05:45:25;1.03;78.43
65291;SHT30;51893;59.754;10.110;2023-10-09T05:48:11;1.00;78.26
65291;SHT30;51893;59.754;10.110;2023-10-09T05:50:39;0.96;78.17
65291;SHT30;51893;59.754;10.110;2023-10-09T05:53:24;0.96;78.41
65291;SHT30;51893;59.754;10.110;2023-10-09T05:56:10;0.95;78.27
65291;SHT30;51893;59.754;10.110;2023-10-09T05:58:57;0.94;78.17
65291;SHT30;51893;59.754;10.110;2023-10-09T06:01:29;0.88;78.04
65291;SHT30;51893;59.754;10.110;2023-10-09T06:04:15;0.88;78.05
65291;SHT30;51893;59.754;10.110;2023-10-09T06:06:42;0.91;78.14
65291;SHT30;51893;59.754;10.110;2023-10-09T06:09:21;0.93;77.89
65291;SHT30;51893;59.754;10.110;2023-10-09T06:11:49;0.93;77.83
65291;SHT30;51893;59.754;10.110;2023-10-09T06:14:17;0.94;77.79
65291;SHT30;51893;59.754;10.110;2023-10-09T06:16:57;0.95;78.01
65291;SHT30;51893;59.754;10.110;2023-10-09T06:19:42;0.96;78.35
65291;SHT30;51893;59.754;10.110;2023-10-09T06:22:15;0.95;78.66
65291;SHT30;51893;59.754;10.110;2023-10-09T06:25:00;0.96;78.79
65291;SHT30;51893;59.754;10.110;2023-10-09T06:27:35;0.97;79.04
65291;SHT30;51893;59.754;10.110;2023-10-09T06:30:02;0.95;79.27
65291;SHT30;51893;59.754;10.110;2023-10-09T06:32:39;0.92;79.52
65291;SHT30;51893;59.754;10.110;2023-10-09T06:35:24;0.86;79.74
65291;SHT30;51893;59.754;10.110;2023-10-09T06:37:57;0.88;79.90
65291;SHT30;51893;59.754;10.110;2023-10-09T06:40:31;0.93;79.89
65291;SHT30;51893;59.754;10.110;2023-10-09T06:43:19;0.94;79.96
65291;SHT30;51893;59.754;10.110;2023-10-09T06:48:21;0.99;80.10
65291;SHT30;51893;59.754;10.110;2023-10-09T06:51:04;1.03;80.16
65291;SHT30;51893;59.754;10.110;2023-10-09T06:53:52;1.06;80.25
65291;SHT30;51893;59.754;10.110;2023-10-09T06:56:20;1.09;80.21
65291;SHT30;51893;59.754;10.110;2023-10-09T06:58:57;1.10;80.25
65291;SHT30;51893;59.754;10.110;2023-10-09T07:01:25;1.18;80.19
65291;SHT30;51893;59.754;10.110;2023-10-09T07:04:05;1.29;80.10
65291;SHT30;51893;59.754;10.110;2023-10-09T07:06:59;1.40;79.91
65291;SHT30;51893;59.754;10.110;2023-10-09T07:09:28;1.47;79.68
65291;SHT30;51893;59.754;10.110;2023-10-09T07:12:15;1.52;79.48
65291;SHT30;51893;59.754;10.110;2023-10-09T07:14:52;1.57;79.21
65291;SHT30;51893;59.754;10.110;2023-10-09T07:17:22;1.61;78.98
65291;SHT30;51893;59.754;10.110;2023-10-09T07:19:49;1.66;78.80
65291;SHT30;51893;59.754;10.110;2023-10-09T07:22:17;1.73;78.71
65291;SHT30;51893;59.754;10.110;2023-10-09T07:24:47;1.78;78.60
65291;SHT30;51893;59.754;10.110;2023-10-09T07:27:22;1.83;78.51
65291;SHT30;51893;59.754;10.110;2023-10-09T07:30:10;1.88;78.50
65291;SHT30;51893;59.754;10.110;2023-10-09T07:32:59;1.96;78.32
65291;SHT30;51893;59.754;10.110;2023-10-09T07:35:39;2.06;78.23
65291;SHT30;51893;59.754;10.110;2023-10-09T07:38:21;2.17;78.13
65291;SHT30;51893;59.754;10.110;2023-10-09T07:41:02;2.28;77.88
65291;SHT30;51893;59.754;10.110;2023-10-09T07:43:36;2.37;77.71
65291;SHT30;51893;59.754;10.110;2023-10-09T07:46:11;2.47;77.55
65291;SHT30;51893;59.754;10.110;2023-10-09T07:49:00;2.60;77.27
65291;SHT30;51893;59.754;10.110;2023-10-09T07:51:35;2.73;76.92
65291;SHT30;51893;59.754;10.110;2023-10-09T07:54:05;2.85;76.78
65291;SHT30;51893;59.754;10.110;2023-10-09T07:56:36;2.97;76.41
65291;SHT30;51893;59.754;10.110;2023-10-09T07:59:19;3.06;76.14
65291;SHT30;51893;59.754;10.110;2023-10-09T08:01:49;3.10;75.81
65291;SHT30;51893;59.754;10.110;2023-10-09T08:04:29;3.12;75.40
65291;SHT30;51893;59.754;10.110;2023-10-09T08:07:15;3.12;75.14
65291;SHT30;51893;59.754;10.110;2023-10-09T08:10:07;3.18;75.20
65291;SHT30;51893;59.754;10.110;2023-10-09T08:12:40;3.21;75.22
65291;SHT30;51893;59.754;10.110;2023-10-09T08:15:18;3.24;75.16
65291;SHT30;51893;59.754;10.110;2023-10-09T08:20:30;3.29;75.00
65291;SHT30;51893;59.754;10.110;2023-10-09T08:23:18;3.36;75.00
65291;SHT30;51893;59.754;10.110;2023-10-09T08:26:15;3.44;74.99
65291;SHT30;51893;59.754;10.110;2023-10-09T08:28:55;3.52;74.88
65291;SHT30;51893;59.754;10.110;2023-10-09T08:31:41;3.56;74.62
65291;SHT30;51893;59.754;10.110;2023-10-09T08:34:14;3.60;74.58
65291;SHT30;51893;59.754;10.110;2023-10-09T08:37:11;3.67;74.32
65291;SHT30;51893;59.754;10.110;2023-10-09T08:39:39;3.71;74.08
65291;SHT30;51893;59.754;10.110;2023-10-09T08:42:08;3.73;73.93
65291;SHT30;51893;59.754;10.110;2023-10-09T08:44:37;3.72;73.74
65291;SHT30;51893;59.754;10.110;2023-10-09T08:47:10;3.72;73.92
65291;SHT30;51893;59.754;10.110;2023-10-09T08:49:38;3.76;74.01
65291;SHT30;51893;59.754;10.110;2023-10-09T08:52:04;3.80;73.92
65291;SHT30;51893;59.754;10.110;2023-10-09T08:54:32;3.86;73.84
65291;SHT30;51893;59.754;10.110;2023-10-09T08:56:59;3.91;73.83
65291;SHT30;51893;59.754;10.110;2023-10-09T08:59:27;3.92;73.73
65291;SHT30;51893;59.754;10.110;2023-10-09T09:01:53;3.93;73.44
65291;SHT30;51893;59.754;10.110;2023-10-09T09:04:40;3.98;73.41
65291;SHT30;51893;59.754;10.110;2023-10-09T09:07:26;4.06;73.33
65291;SHT30;51893;59.754;10.110;2023-10-09T09:09:57;4.11;72.93
65291;SHT30;51893;59.754;10.110;2023-10-09T09:12:43;4.14;72.55
65291;SHT30;51893;59.754;10.110;2023-10-09T09:15:14;4.18;72.53
65291;SHT30;51893;59.754;10.110;2023-10-09T09:17:46;4.16;72.41
65291;SHT30;51893;59.754;10.110;2023-10-09T09:20:26;4.21;72.38
65291;SHT30;51893;59.754;10.110;2023-10-09T09:22:58;4.24;72.10
65291;SHT30;51893;59.754;10.110;2023-10-09T09:25:39;4.26;71.99
65291;SHT30;51893;59.754;10.110;2023-10-09T09:28:16;4.35;72.22
65291;SHT30;51893;59.754;10.110;2023-10-09T09:30:48;4.46;71.93
65291;SHT30;51893;59.754;10.110;2023-10-09T09:33:25;4.50;71.67
65291;SHT30;51893;59.754;10.110;2023-10-09T09:36:09;4.52;71.55
65291;SHT30;51893;59.754;10.110;2023-10-09T09:38:39;4.59;71.49
65291;SHT30;51893;59.754;10.110;2023-10-09T09:41:08;4.68;71.39
65291;SHT30;51893;59.754;10.110;2023-10-09T09:43:38;4.80;71.03
65291;SHT30;51893;59.754;10.110;2023-10-09T09:46:07;4.92;70.78
65291;SHT30;51893;59.754;10.110;2023-10-09T09:48:38;5.05;70.61
65291;SHT30;51893;59.754;10.110;2023-10-09T09:51:12;5.19;70.21
65291;SHT30;51893;59.754;10.110;2023-10-09T09:53:43;5.34;69.65
65291;SHT30;51893;59.754;10.110;2023-10-09T09:56:14;5.44;69.20
65291;SHT30;51893;59.754;10.110;2023-10-09T09:58:49;5.54;68.63
65291;SHT30;51893;59.754;10.110;2023-10-09T10:01:24;5.58;68.25
65291;SHT30;51893;59.754;10.110;2023-10-09T10:04:03;5.64;68.10
65291;SHT30;51893;59.754;10.110;2023-10-09T10:06:40;5.74;67.62
65291;SHT30;51893;59.754;10.110;2023-10-09T10:12:08;5.92;67.68
65291;SHT30;51893;59.754;10.110;2023-10-09T10:14:54;5.95;66.82
65291;SHT30;51893;59.754;10.110;2023-10-09T10:17:25;6.00;66.59
65291;SHT30;51893;59.754;10.110;2023-10-09T10:22:42;6.26;66.12
65291;SHT30;51893;59.754;10.110;2023-10-09T10:25:50;6.39;66.18
65291;SHT30;51893;59.754;10.110;2023-10-09T10:31:06;6.62;65.57
65291;SHT30;51893;59.754;10.110;2023-10-09T10:36:22;6.76;64.31
65291;SHT30;51893;59.754;10.110;2023-10-09T10:39:07;6.83;62.78
65291;SHT30;51893;59.754;10.110;2023-10-09T10:41:55;6.94;62.58
65291;SHT30;51893;59.754;10.110;2023-10-09T10:44:31;7.05;61.91
65291;SHT30;51893;59.754;10.110;2023-10-09T10:47:09;7.11;61.34
65291;SHT30;51893;59.754;10.110;2023-10-09T10:49:51;7.23;61.34
65291;SHT30;51893;59.754;10.110;2023-10-09T10:52:25;7.30;61.55
65291;SHT30;51893;59.754;10.110;2023-10-09T10:55:08;7.40;61.47
65291;SHT30;51893;59.754;10.110;2023-10-09T10:58:01;7.53;61.55
65291;SHT30;51893;59.754;10.110;2023-10-09T11:00:40;7.75;61.29
65291;SHT30;51893;59.754;10.110;2023-10-09T11:03:25;7.83;61.12
65291;SHT30;51893;59.754;10.110;2023-10-09T11:06:11;7.95;61.16
65291;SHT30;51893;59.754;10.110;2023-10-09T11:08:45;8.12;60.52
65291;SHT30;51893;59.754;10.110;2023-10-09T11:11:20;8.25;60.29
65291;SHT30;51893;59.754;10.110;2023-10-09T11:13:47;8.33;60.26
65291;SHT30;51893;59.754;10.110;2023-10-09T11:16:20;8.36;60.32
65291;SHT30;51893;59.754;10.110;2023-10-09T11:19:02;8.39;59.65
65291;SHT30;51893;59.754;10.110;2023-10-09T11:21:42;8.30;58.82
65291;SHT30;51893;59.754;10.110;2023-10-09T11:24:09;8.23;59.72
65291;SHT30;51893;59.754;10.110;2023-10-09T11:26:51;8.26;59.69
65291;SHT30;51893;59.754;10.110;2023-10-09T11:29:22;8.30;59.72
65291;SHT30;51893;59.754;10.110;2023-10-09T11:34:31;8.31;59.06
65291;SHT30;51893;59.754;10.110;2023-10-09T11:39:37;8.47;58.62
65291;SHT30;51893;59.754;10.110;2023-10-09T11:42:20;8.48;57.41
65291;SHT30;51893;59.754;10.110;2023-10-09T11:45:28;8.43;56.44
65291;SHT30;51893;59.754;10.110;2023-10-09T11:48:17;8.42;56.22
65291;SHT30;51893;59.754;10.110;2023-10-09T11:51:11;8.36;56.51
65291;SHT30;51893;59.754;10.110;2023-10-09T11:53:45;8.39;57.44
65291;SHT30;51893;59.754;10.110;2023-10-09T11:56:16;8.41;57.52
65291;SHT30;51893;59.754;10.110;2023-10-09T11:58:47;8.48;57.40
65291;SHT30;51893;59.754;10.110;2023-10-09T12:01:17;8.52;57.12
65291;SHT30;51893;59.754;10.110;2023-10-09T12:03:46;8.62;57.15
65291;SHT30;51893;59.754;10.110;2023-10-09T12:06:17;8.83;56.98
65291;SHT30;51893;59.754;10.110;2023-10-09T12:08:48;9.08;56.15
65291;SHT30;51893;59.754;10.110;2023-10-09T12:11:15;9.20;56.01
65291;SHT30;51893;59.754;10.110;2023-10-09T12:14:09;9.39;55.92
65291;SHT30;51893;59.754;10.110;2023-10-09T12:16:36;9.65;55.24
65291;SHT30;51893;59.754;10.110;2023-10-09T12:19:09;9.78;54.63
65291;SHT30;51893;59.754;10.110;2023-10-09T12:21:36;9.85;53.97
65291;SHT30;51893;59.754;10.110;2023-10-09T12:24:03;9.83;53.62
65291;SHT30;51893;59.754;10.110;2023-10-09T12:26:38;9.77;53.69
65291;SHT30;51893;59.754;10.110;2023-10-09T12:29:07;9.76;54.16
65291;SHT30;51893;59.754;10.110;2023-10-09T12:31:40;9.78;54.45
65291;SHT30;51893;59.754;10.110;2023-10-09T12:34:08;9.84;53.91
65291;SHT30;51893;59.754;10.110;2023-10-09T12:36:34;9.81;53.91
65291;SHT30;51893;59.754;10.110;2023-10-09T12:39:03;9.77;54.03
65291;SHT30;51893;59.754;10.110;2023-10-09T12:41:31;9.75;53.85
65291;SHT30;51893;59.754;10.110;2023-10-09T12:43:59;9.68;52.74
65291;SHT30;51893;59.754;10.110;2023-10-09T12:46:27;9.62;52.80
65291;SHT30;51893;59.754;10.110;2023-10-09T12:48:58;9.60;53.02
65291;SHT30;51893;59.754;10.110;2023-10-09T12:51:26;9.54;52.82
65291;SHT30;51893;59.754;10.110;2023-10-09T12:53:55;9.51;53.14
65291;SHT30;51893;59.754;10.110;2023-10-09T12:56:27;9.52;53.49
65291;SHT30;51893;59.754;10.110;2023-10-09T12:59:04;9.56;53.41
65291;SHT30;51893;59.754;10.110;2023-10-09T13:01:33;9.64;52.63
65291;SHT30;51893;59.754;10.110;2023-10-09T13:04:11;9.72;52.51
65291;SHT30;51893;59.754;10.110;2023-10-09T13:06:44;9.81;51.81
65291;SHT30;51893;59.754;10.110;2023-10-09T13:09:11;9.83;51.13
65291;SHT30;51893;59.754;10.110;2023-10-09T13:11:52;9.85;50.84
65291;SHT30;51893;59.754;10.110;2023-10-09T13:14:18;9.92;51.15
65291;SHT30;51893;59.754;10.110;2023-10-09T13:16:48;9.98;51.08
65291;SHT30;51893;59.754;10.110;2023-10-09T13:19:19;10.04;52.86
65291;SHT30;51893;59.754;10.110;2023-10-09T13:21:46;10.11;53.69
65291;SHT30;51893;59.754;10.110;2023-10-09T13:24:15;10.16;53.04
65291;SHT30;51893;59.754;10.110;2023-10-09T13:26:50;10.15;52.83
65291;SHT30;51893;59.754;10.110;2023-10-09T13:29:24;10.12;51.48
65291;SHT30;51893;59.754;10.110;2023-10-09T13:31:51;10.07;50.94
65291;SHT30;51893;59.754;10.110;2023-10-09T13:34:28;10.03;50.98
65291;SHT30;51893;59.754;10.110;2023-10-09T13:36:55;9.96;50.48
65291;SHT30;51893;59.754;10.110;2023-10-09T13:39:26;9.93;50.17
65291;SHT30;51893;59.754;10.110;2023-10-09T13:41:56;9.87;50.55
65291;SHT30;51893;59.754;10.110;2023-10-09T13:44:26;9.84;50.22
65291;SHT30;51893;59.754;10.110;2023-10-09T13:47:02;9.82;50.24
65291;SHT30;51893;59.754;10.110;2023-10-09T13:49:45;9.82;50.03
65291;SHT30;51893;59.754;10.110;2023-10-09T13:52:12;9.81;49.38
65291;SHT30;51893;59.754;10.110;2023-10-09T13:54:44;9.81;49.48
65291;SHT30;51893;59.754;10.110;2023-10-09T13:57:14;9.79;49.09
65291;SHT30;51893;59.754;10.110;2023-10-09T13:59:42;9.77;49.46
65291;SHT30;51893;59.754;10.110;2023-10-09T14:02:15;9.76;49.95
65291;SHT30;51893;59.754;10.110;2023-10-09T14:04:46;9.75;50.73
65291;SHT30;51893;59.754;10.110;2023-10-09T14:07:13;9.78;51.82
65291;SHT30;51893;59.754;10.110;2023-10-09T14:09:44;9.81;51.72
65291;SHT30;51893;59.754;10.110;2023-10-09T14:12:31;9.82;51.96
65291;SHT30;51893;59.754;10.110;2023-10-09T14:14:58;9.84;51.64
65291;SHT30;51893;59.754;10.110;2023-10-09T14:17:26;9.82;50.68
65291;SHT30;51893;59.754;10.110;2023-10-09T14:19:54;9.81;51.27
65291;SHT30;51893;59.754;10.110;2023-10-09T14:22:49;9.84;51.76
65291;SHT30;51893;59.754;10.110;2023-10-09T14:25:18;9.84;52.14
65291;SHT30;51893;59.754;10.110;2023-10-09T14:27:48;9.81;50.95
65291;SHT30;51893;59.754;10.110;2023-10-09T14:30:14;9.73;51.41
65291;SHT30;51893;59.754;10.110;2023-10-09T14:32:49;9.69;51.36
65291;SHT30;51893;59.754;10.110;2023-10-09T14:35:22;9.69;51.37
65291;SHT30;51893;59.754;10.110;2023-10-09T14:37:56;9.63;50.27
65291;SHT30;51893;59.754;10.110;2023-10-09T14:40:28;9.57;51.05
65291;SHT30;51893;59.754;10.110;2023-10-09T14:42:58;9.55;51.87
65291;SHT30;51893;59.754;10.110;2023-10-09T14:45:25;9.56;52.56
65291;SHT30;51893;59.754;10.110;2023-10-09T14:47:55;9.57;51.96
65291;SHT30;51893;59.754;10.110;2023-10-09T14:50:22;9.53;51.99
65291;SHT30;51893;59.754;10.110;2023-10-09T14:52:50;9.53;52.64
65291;SHT30;51893;59.754;10.110;2023-10-09T14:55:17;9.51;52.82
65291;SHT30;51893;59.754;10.110;2023-10-09T14:57:47;9.49;53.46
65291;SHT30;51893;59.754;10.110;2023-10-09T15:00:18;9.43;54.00
65291;SHT30;51893;59.754;10.110;2023-10-09T15:02:49;9.43;54.35
65291;SHT30;51893;59.754;10.110;2023-10-09T15:05:19;9.41;53.74
65291;SHT30;51893;59.754;10.110;2023-10-09T15:07:48;9.39;53.85
65291;SHT30;51893;59.754;10.110;2023-10-09T15:10:16;9.37;53.81
65291;SHT30;51893;59.754;10.110;2023-10-09T15:12:44;9.36;54.23
65291;SHT30;51893;59.754;10.110;2023-10-09T15:15:13;9.36;54.19
65291;SHT30;51893;59.754;10.110;2023-10-09T15:17:40;9.35;55.18
65291;SHT30;51893;59.754;10.110;2023-10-09T15:20:11;9.35;55.64
65291;SHT30;51893;59.754;10.110;2023-10-09T15:22:43;9.32;55.94
65291;SHT30;51893;59.754;10.110;2023-10-09T15:25:11;9.29;55.85
65291;SHT30;51893;59.754;10.110;2023-10-09T15:27:41;9.26;56.43
65291;SHT30;51893;59.754;10.110;2023-10-09T15:30:09;9.27;56.71
65291;SHT30;51893;59.754;10.110;2023-10-09T15:32:40;9.27;57.43
65291;SHT30;51893;59.754;10.110;2023-10-09T15:35:07;9.20;56.45
65291;SHT30;51893;59.754;10.110;2023-10-09T15:37:36;9.19;56.79
65291;SHT30;51893;59.754;10.110;2023-10-09T15:40:04;9.20;57.33
65291;SHT30;51893;59.754;10.110;2023-10-09T15:42:33;9.12;58.48
65291;SHT30;51893;59.754;10.110;2023-10-09T15:45:03;9.03;59.23
65291;SHT30;51893;59.754;10.110;2023-10-09T15:47:32;9.06;59.53
65291;SHT30;51893;59.754;10.110;2023-10-09T15:50:02;9.05;60.21
65291;SHT30;51893;59.754;10.110;2023-10-09T15:52:29;9.04;60.91
65291;SHT30;51893;59.754;10.110;2023-10-09T15:54:56;9.02;61.75
65291;SHT30;51893;59.754;10.110;2023-10-09T15:57:23;8.98;62.40
65291;SHT30;51893;59.754;10.110;2023-10-09T15:59:49;8.97;61.80
65291;SHT30;51893;59.754;10.110;2023-10-09T16:02:16;8.91;61.72
65291;SHT30;51893;59.754;10.110;2023-10-09T16:04:44;8.88;61.72
65291;SHT30;51893;59.754;10.110;2023-10-09T16:07:11;8.88;61.20
65291;SHT30;51893;59.754;10.110;2023-10-09T16:09:38;8.86;61.53
65291;SHT30;51893;59.754;10.110;2023-10-09T16:12:08;8.83;62.12
65291;SHT30;51893;59.754;10.110;2023-10-09T16:14:36;8.81;62.00
65291;SHT30;51893;59.754;10.110;2023-10-09T16:17:02;8.74;61.10
65291;SHT30;51893;59.754;10.110;2023-10-09T16:19:32;8.67;60.54
65291;SHT30;51893;59.754;10.110;2023-10-09T16:22:02;8.64;61.11
65291;SHT30;51893;59.754;10.110;2023-10-09T16:24:31;8.60;62.54
65291;SHT30;51893;59.754;10.110;2023-10-09T16:27:05;8.56;63.39
65291;SHT30;51893;59.754;10.110;2023-10-09T16:29:34;8.53;63.92
65291;SHT30;51893;59.754;10.110;2023-10-09T16:32:00;8.50;64.24
65291;SHT30;51893;59.754;10.110;2023-10-09T16:34:27;8.50;64.39
65291;SHT30;51893;59.754;10.110;2023-10-09T16:36:55;8.42;64.86
65291;SHT30;51893;59.754;10.110;2023-10-09T16:39:22;8.28;65.41
65291;SHT30;51893;59.754;10.110;2023-10-09T16:41:49;8.26;65.54